Time;durP1;ratioP1;P1;durP2;ratioP2;P2;SDS_P1;SDS_P2;PMS_P1;PMS_P2;Temp;Humidity;BMP_temperature;BMP_pressure;BME280_temperature;BME280_humidity;BME280_pressure;Samples;Min_cycle;Max_cycle;Signal;HPM_P1;HPM_P2
2021/08/18 00:01:09;;;;;;;3.90;1.13;;;13.90;94.80;;;;;;4912103;29;19915;-69
2021/08/18 00:03:34;;;;;;;;;;;13.90;94.90;;;;;;4913676;29;20493;-69
2021/08/18 00:06:00;;;;;;;8.68;1.40;;;13.90;95.50;;;;;;4915023;29;19907;-69
2021/08/18 00:08:26;;;;;;;;;;;13.90;95.80;;;;;;4915621;29;20028;-69
2021/08/18 00:10:52;;;;;;;5.57;1.42;;;13.90;95.80;;;;;;4898458;29;20413;-69
2021/08/18 00:13:22;;;;;;;7.97;1.00;;;13.80;95.80;;;;;;4915348;29;20029;-69
2021/08/18 00:15:49;;;;;;;5.82;1.67;;;13.80;96.20;;;;;;4898171;29;20047;-70
2021/08/18 00:18:15;;;;;;;3.17;1.17;;;13.80;96.20;;;;;;4915170;29;20501;-69
2021/08/18 00:20:41;;;;;;;8.80;1.10;;;13.80;96.30;;;;;;4914888;29;20557;-69
2021/08/18 00:23:06;;;;;;;;;;;13.70;96.60;;;;;;4915315;29;20156;-69
2021/08/18 00:25:32;;;;;;;3.40;1.50;;;13.60;96.70;;;;;;4914740;29;19931;-69
2021/08/18 00:27:58;;;;;;;;;;;13.60;97.10;;;;;;4898047;29;20046;-69
2021/08/18 00:30:23;;;;;;;3.03;0.95;;;13.60;97.10;;;;;;4914710;29;19927;-69
2021/08/18 00:32:49;;;;;;;;;;;13.60;97.40;;;;;;4915153;29;20720;-69
2021/08/18 00:35:15;;;;;;;4.43;1.00;;;13.50;97.40;;;;;;4914152;29;20034;-68
2021/08/18 00:37:40;;;;;;;;;;;13.50;97.60;;;;;;4914976;29;20044;-69
2021/08/18 00:40:07;;;;;;;5.05;1.52;;;13.50;97.60;;;;;;4914787;29;19936;-69
2021/08/18 00:42:33;;;;;;;3.97;1.02;;;13.50;97.50;;;;;;4897531;29;20034;-68
2021/08/18 00:44:59;;;;;;;4.93;1.02;;;13.50;97.70;;;;;;4914382;29;20101;-69
2021/08/18 00:47:25;;;;;;;;;;;13.50;98.00;;;;;;4915195;29;20127;-69
2021/08/18 00:49:50;;;;;;;3.25;1.25;;;13.40;98.20;;;;;;4914303;29;20417;-69
2021/08/18 00:52:16;;;;;;;;;;;13.40;98.40;;;;;;4914998;29;20532;-69
2021/08/18 00:54:41;;;;;;;3.80;1.10;;;13.30;98.50;;;;;;4914356;29;19915;-70
2021/08/18 00:57:07;;;;;;;;;;;13.30;98.60;;;;;;4897960;29;20401;-69
2021/08/18 00:59:33;;;;;;;11.40;1.75;;;13.40;98.80;;;;;;4914258;29;19911;-68
2021/08/18 01:02:00;;;;;;;2.70;0.93;;;13.30;99.00;;;;;;4914652;29;20039;-69
2021/08/18 01:04:26;;;;;;;4.55;1.35;;;13.30;99.20;;;;;;4914000;29;20050;-69
2021/08/18 01:06:52;;;;;;;5.13;1.38;;;13.30;99.50;;;;;;4914219;29;20040;-69
2021/08/18 01:09:19;;;;;;;;;;;13.40;99.60;;;;;;4914633;29;20060;-70
2021/08/18 01:11:48;;;;;;;3.88;1.38;;;13.40;99.70;;;;;;4914324;29;19911;-69
2021/08/18 01:14:14;;;;;;;2.72;1.27;;;13.40;99.80;;;;;;4913819;29;20048;-69
2021/08/18 01:16:44;;;;;;;1.88;0.90;;;13.40;99.50;;;;;;4913771;29;20032;-69
2021/08/18 01:19:12;;;;;;;2.15;0.88;;;13.40;99.20;;;;;;4914027;29;20036;-69
2021/08/18 01:21:41;;;;;;;5.82;1.33;;;13.40;99.30;;;;;;4914005;29;20505;-69
2021/08/18 01:24:09;;;;;;;3.45;0.93;;;13.40;99.40;;;;;;4913862;29;20032;-70
2021/08/18 01:26:37;;;;;;;4.00;1.30;;;13.40;99.40;;;;;;4913890;29;20036;-69
2021/08/18 01:29:03;;;;;;;4.72;1.10;;;13.40;99.40;;;;;;4914164;29;20080;-69
2021/08/18 01:31:28;;;;;;;;;;;13.50;99.50;;;;;;4914183;29;20077;-69
2021/08/18 01:33:57;;;;;;;2.45;1.13;;;13.50;99.60;;;;;;4896461;29;20005;-68
2021/08/18 01:36:22;;;;;;;1.98;0.95;;;13.50;99.40;;;;;;4913446;29;20056;-68
2021/08/18 01:38:48;;;;;;;;;;;13.50;99.30;;;;;;4913812;29;20036;-68
2021/08/18 01:41:13;;;;;;;5.47;1.00;;;13.50;99.40;;;;;;4913648;29;20002;-69
2021/08/18 01:43:39;;;;;;;;;;;13.50;99.20;;;;;;4896624;29;20036;-69
2021/08/18 01:46:05;;;;;;;4.15;1.15;;;13.50;99.20;;;;;;4913249;29;19911;-69
2021/08/18 01:48:32;;;;;;;;;;;13.50;99.20;;;;;;4913825;29;20039;-69
2021/08/18 01:50:59;;;;;;;1.75;0.80;;;13.50;99.10;;;;;;4913197;29;19954;-69
2021/08/18 01:53:27;;;;;;;5.22;0.98;;;13.50;98.90;;;;;;4913567;29;20039;-69
2021/08/18 01:55:54;;;;;;;4.20;1.08;;;13.60;98.60;;;;;;4896443;29;20032;-69
2021/08/18 01:58:20;;;;;;;2.42;1.02;;;13.60;98.10;;;;;;4913562;29;20028;-70
2021/08/18 02:00:46;;;;;;;;;;;13.60;98.20;;;;;;4913748;29;20036;-69
2021/08/18 02:03:11;;;;;;;2.03;0.88;;;13.60;98.10;;;;;;4896281;29;20406;-69
2021/08/18 02:05:37;;;;;;;;;;;13.60;98.00;;;;;;4913522;29;20428;-70
2021/08/18 02:08:04;;;;;;;2.20;1.02;;;13.60;98.00;;;;;;4913248;29;19911;-70
2021/08/18 02:10:30;;;;;;;4.65;1.05;;;13.60;98.20;;;;;;4896360;29;20036;-70
2021/08/18 02:12:55;;;;;;;;;;;13.60;98.30;;;;;;4913432;29;20035;-69
2021/08/18 02:15:25;;;;;;;2.00;1.17;;;13.60;98.50;;;;;;4913055;29;20423;-70
2021/08/18 02:17:51;;;;;;;3.70;0.80;;;13.60;98.60;;;;;;4913293;29;20047;-69
2021/08/18 02:20:18;;;;;;;;;;;13.60;98.20;;;;;;4913846;29;20028;-70
2021/08/18 02:22:44;;;;;;;;;;;13.60;97.70;;;;;;4913492;29;19914;-70
2021/08/18 02:25:10;;;;;;;2.05;0.88;;;13.60;97.50;;;;;;4912777;29;19915;-69
2021/08/18 02:27:36;;;;;;;3.30;1.00;;;13.60;97.40;;;;;;4912736;29;20035;-69
2021/08/18 02:30:02;;;;;;;;;;;13.60;97.40;;;;;;4913626;29;20697;-70
2021/08/18 02:32:28;;;;;;;2.78;0.73;;;13.60;97.30;;;;;;4912658;29;20037;-69
2021/08/18 02:34:53;;;;;;;;;;;13.50;97.40;;;;;;4912594;29;20535;-69
2021/08/18 02:37:19;;;;;;;1.90;1.00;;;13.50;97.50;;;;;;4912378;29;19911;-69
2021/08/18 02:39:45;;;;;;;;;;;13.50;97.20;;;;;;4912978;29;20508;-70
2021/08/18 02:42:10;;;;;;;3.65;0.73;;;13.50;97.50;;;;;;4912454;29;20383;-69
2021/08/18 02:44:36;;;;;;;;;;;13.50;97.40;;;;;;4912886;29;20402;-69
2021/08/18 02:47:02;;;;;;;3.88;1.33;;;13.50;97.30;;;;;;4912646;29;20475;-69
2021/08/18 02:49:28;;;;;;;7.45;0.90;;;13.50;97.30;;;;;;4912380;29;20028;-70
2021/08/18 02:51:53;;;;;;;;;;;13.50;97.40;;;;;;4912827;29;20416;-70
2021/08/18 02:54:19;;;;;;;5.50;1.13;;;13.50;97.30;;;;;;4912303;29;19911;-69
2021/08/18 02:56:46;;;;;;;2.78;1.15;;;13.50;97.30;;;;;;4912230;29;20051;-69
2021/08/18 02:59:11;;;;;;;;;;;13.50;96.90;;;;;;4912821;29;20052;-69
2021/08/18 03:01:38;;;;;;;3.03;1.20;;;13.50;96.70;;;;;;4895289;29;20661;-69
2021/08/18 03:04:04;;;;;;;5.15;1.25;;;13.50;96.70;;;;;;4912360;29;20040;-70
2021/08/18 03:06:29;;;;;;;;;;;13.50;96.60;;;;;;4912870;29;20714;-69
2021/08/18 03:08:55;;;;;;;3.17;1.02;;;13.60;96.50;;;;;;4895519;29;19987;-69
2021/08/18 03:11:20;;;;;;;;;;;13.50;96.50;;;;;;4896012;29;20080;-69
2021/08/18 03:13:46;;;;;;;5.40;0.95;;;13.50;96.40;;;;;;4895497;29;20439;-69
2021/08/18 03:16:12;;;;;;;;;;;13.50;96.20;;;;;;4912781;29;20020;-70
2021/08/18 03:18:37;;;;;;;2.03;0.93;;;13.50;96.30;;;;;;4912317;29;19907;-69
2021/08/18 03:21:03;;;;;;;;;;;13.40;96.30;;;;;;4912863;29;20071;-69
2021/08/18 03:23:29;;;;;;;2.45;1.33;;;13.40;96.50;;;;;;4895303;29;19917;-69
2021/08/18 03:25:54;;;;;;;;;;;13.40;96.70;;;;;;4912878;29;20508;-69
2021/08/18 03:28:20;;;;;;;5.68;1.20;;;13.40;96.80;;;;;;4912163;29;19918;-69
2021/08/18 03:30:45;;;;;;;;;;;13.30;97.10;;;;;;4895684;29;20040;-69
2021/08/18 03:33:11;;;;;;;5.13;1.25;;;13.20;97.20;;;;;;4911838;29;19966;-69
2021/08/18 03:35:37;;;;;;;;;;;13.20;97.50;;;;;;4912395;29;20072;-69
2021/08/18 03:38:02;;;;;;;5.88;1.02;;;13.20;97.90;;;;;;4914330;29;19922;-69
2021/08/18 03:40:28;;;;;;;;;;;13.20;97.80;;;;;;4899667;29;20036;-69
2021/08/18 03:42:54;;;;;;;2.78;1.00;;;13.20;98.10;;;;;;4915846;29;19957;-69
2021/08/18 03:45:19;;;;;;;;;;;13.10;98.20;;;;;;4916202;29;20059;-69
2021/08/18 03:47:45;;;;;;;4.38;1.35;;;13.20;98.60;;;;;;4915831;29;19915;-69
2021/08/18 03:50:11;;;;;;;;;;;13.10;98.50;;;;;;4916182;29;20028;-70
2021/08/18 03:52:41;;;;;;;3.15;1.27;;;13.20;98.70;;;;;;4915997;29;19961;-69
2021/08/18 03:55:11;;;;;;;3.80;1.20;;;13.20;98.70;;;;;;4915676;29;20119;-70
2021/08/18 03:57:37;;;;;;;4.88;1.35;;;13.10;98.60;;;;;;4915782;29;20040;-69
2021/08/18 04:00:08;;;;;;;;;;;13.10;98.50;;;;;;4899194;29;20028;-69
2021/08/18 04:02:35;;;;;;;3.58;1.10;;;13.20;98.10;;;;;;4915535;29;20002;-69
2021/08/18 04:05:00;;;;;;;5.38;0.95;;;13.20;98.10;;;;;;4915077;29;20055;-69
2021/08/18 04:07:26;;;;;;;;;;;13.20;98.20;;;;;;4916211;29;20024;-69
2021/08/18 04:09:51;;;;;;;6.35;1.15;;;13.20;98.10;;;;;;4915128;29;20404;-69
2021/08/18 04:12:17;;;;;;;;;;;13.30;98.30;;;;;;4898763;29;20032;-69
2021/08/18 04:14:42;;;;;;;1.77;0.82;;;13.30;97.90;;;;;;4914383;29;20435;-68
2021/08/18 04:17:08;;;;;;;;;;;13.30;97.80;;;;;;4898069;29;20032;-70
2021/08/18 04:19:36;;;;;;;3.28;1.10;;;13.30;97.40;;;;;;4914878;29;19911;-70
2021/08/18 04:22:02;;;;;;;9.85;1.02;;;13.40;97.00;;;;;;4914906;29;20104;-71
2021/08/18 04:24:27;;;;;;;2.78;0.80;;;13.50;96.90;;;;;;4914525;29;20036;-70
2021/08/18 04:26:53;;;;;;;;;;;13.50;96.80;;;;;;4915175;29;20036;-70
2021/08/18 04:29:19;;;;;;;4.97;1.27;;;13.60;96.70;;;;;;4914945;29;19915;-70
2021/08/18 04:31:44;;;;;;;;;;;13.70;96.80;;;;;;4915730;29;20412;-70
2021/08/18 04:34:10;;;;;;;3.33;1.25;;;13.70;97.00;;;;;;4897346;29;19958;-70
2021/08/18 04:36:35;;;;;;;6.45;1.80;;;13.80;97.10;;;;;;4914705;29;20040;-70
2021/08/18 04:39:01;;;;;;;;;;;13.80;97.10;;;;;;4915376;29;20448;-70
2021/08/18 04:41:27;;;;;;;3.53;1.25;;;13.80;96.80;;;;;;4898171;29;19964;-69
2021/08/18 04:43:52;;;;;;;3.40;1.08;;;13.80;96.60;;;;;;4915157;29;20078;-69
2021/08/18 04:46:18;;;;;;;;;;;13.80;96.50;;;;;;4914803;29;20039;-71
2021/08/18 04:48:44;;;;;;;3.03;0.80;;;13.90;96.00;;;;;;4896831;29;19911;-70
2021/08/18 04:51:09;;;;;;;;;;;13.90;95.40;;;;;;4898245;29;20032;-70
2021/08/18 04:53:35;;;;;;;3.33;1.23;;;13.90;94.90;;;;;;4897722;29;19963;-70
2021/08/18 04:56:01;;;;;;;;;;;14.00;94.10;;;;;;4914750;29;20374;-69
2021/08/18 04:58:27;;;;;;;3.10;0.90;;;14.10;94.40;;;;;;4897336;29;19910;-69
2021/08/18 05:00:52;;;;;;;;;;;14.10;94.30;;;;;;4897937;29;20032;-70
2021/08/18 05:03:18;;;;;;;5.25;1.08;;;14.20;95.90;;;;;;4897318;29;20026;-70
2021/08/18 05:05:43;;;;;;;4.32;1.92;;;14.20;96.60;;;;;;4913856;29;20100;-70
2021/08/18 05:08:09;;;;;;;;;;;14.20;96.90;;;;;;4914401;29;20032;-70
2021/08/18 05:10:35;;;;;;;2.80;0.90;;;14.20;96.80;;;;;;4913923;29;19910;-69
2021/08/18 05:13:01;;;;;;;3.05;1.52;;;14.30;96.80;;;;;;4913906;29;20071;-69
2021/08/18 05:15:27;;;;;;;;;;;14.40;97.00;;;;;;4914232;29;20064;-70
2021/08/18 05:17:53;;;;;;;2.67;1.17;;;14.50;97.50;;;;;;4914143;29;19911;-70
2021/08/18 05:20:20;;;;;;;2.33;1.00;;;14.50;97.00;;;;;;4914203;29;20468;-69
2021/08/18 05:22:47;;;;;;;3.92;0.90;;;14.60;96.80;;;;;;4897089;29;20032;-70
2021/08/18 05:25:15;;;;;;;4.05;0.90;;;14.70;96.90;;;;;;4913925;29;20043;-71
2021/08/18 05:27:41;;;;;;;4.10;1.30;;;14.80;97.60;;;;;;4913930;29;20437;-70
2021/08/18 05:30:09;;;;;;;3.90;1.10;;;14.80;97.50;;;;;;4897257;29;20404;-70
2021/08/18 05:32:35;;;;;;;3.33;1.15;;;14.80;97.20;;;;;;4913521;29;20040;-70
2021/08/18 05:35:02;;;;;;;4.25;0.90;;;14.90;97.10;;;;;;4913418;29;20108;-70
2021/08/18 05:37:28;;;;;;;2.78;1.08;;;14.90;97.20;;;;;;4913635;29;20024;-70
2021/08/18 05:39:53;;;;;;;;;;;15.00;97.00;;;;;;4914026;29;20036;-70
2021/08/18 05:42:19;;;;;;;2.50;1.00;;;15.00;96.50;;;;;;4913529;29;20007;-70
2021/08/18 05:44:44;;;;;;;;;;;15.10;96.30;;;;;;4913890;29;20083;-69
2021/08/18 05:47:10;;;;;;;8.05;5.50;;;15.30;95.60;;;;;;4896836;29;19907;-70
2021/08/18 05:49:36;;;;;;;11.05;6.40;;;15.30;95.30;;;;;;4913616;29;20549;-70
2021/08/18 05:52:01;;;;;;;;;;;15.40;95.40;;;;;;4913875;29;20485;-70
2021/08/18 05:54:27;;;;;;;15.13;8.13;;;15.50;95.10;;;;;;4913552;29;19918;-70
2021/08/18 05:56:53;;;;;;;10.60;6.75;;;15.60;94.40;;;;;;4896443;29;20422;-70
2021/08/18 05:59:18;;;;;;;;;;;15.70;94.10;;;;;;4913737;29;20032;-70
2021/08/18 06:01:44;;;;;;;9.57;6.95;;;15.80;93.70;;;;;;4912493;29;20273;-70
2021/08/18 06:04:09;;;;;;;;;;;15.90;93.10;;;;;;4896656;29;20537;-70
2021/08/18 06:06:35;;;;;;;13.75;8.65;;;15.90;93.20;;;;;;4913344;29;20021;-71
2021/08/18 06:09:01;;;;;;;10.40;7.53;;;16.00;93.30;;;;;;4913375;29;20040;-71
2021/08/18 06:11:27;;;;;;;8.25;5.07;;;16.10;93.90;;;;;;4913530;29;20052;-71
2021/08/18 06:13:53;;;;;;;9.27;3.83;;;16.30;94.30;;;;;;4913316;29;20532;-71
2021/08/18 06:16:20;;;;;;;4.78;2.55;;;16.50;94.40;;;;;;4912693;29;20115;-71
2021/08/18 06:18:46;;;;;;;6.28;2.88;;;16.70;93.60;;;;;;4912823;29;20103;-70
2021/08/18 06:21:11;;;;;;;4.80;1.50;;;16.90;92.80;;;;;;4913092;29;20477;-71
2021/08/18 06:23:37;;;;;;;5.60;1.83;;;17.00;92.30;;;;;;4912907;29;20028;-71
2021/08/18 06:26:03;;;;;;;3.70;1.20;;;17.10;91.70;;;;;;4895792;29;20040;-71
2021/08/18 06:28:28;;;;;;;6.75;1.60;;;17.30;90.60;;;;;;4912747;29;20088;-70
2021/08/18 06:30:54;;;;;;;7.97;1.88;;;17.80;90.30;;;;;;4895660;29;20497;-69
2021/08/18 06:33:20;;;;;;;6.40;1.20;;;18.60;88.40;;;;;;4912600;29;20028;-69
2021/08/18 06:35:46;;;;;;;6.22;1.10;;;19.30;84.80;;;;;;4912440;29;20474;-69
2021/08/18 06:38:12;;;;;;;2.13;1.17;;;19.60;82.80;;;;;;4912295;29;20070;-69
2021/08/18 06:40:37;;;;;;;7.18;1.27;;;19.80;82.10;;;;;;4895340;29;20052;-69
2021/08/18 06:43:03;;;;;;;6.55;1.67;;;19.90;81.00;;;;;;4912551;29;20034;-69
2021/08/18 06:45:29;;;;;;;2.38;1.05;;;19.90;80.20;;;;;;4912593;29;20513;-69
2021/08/18 06:47:55;;;;;;;3.20;1.10;;;20.00;77.90;;;;;;4895683;29;20118;-70
2021/08/18 06:50:21;;;;;;;4.70;1.45;;;20.40;76.40;;;;;;4912467;29;20046;-70
2021/08/18 06:52:47;;;;;;;6.60;1.30;;;20.80;74.40;;;;;;4912539;29;20039;-70
2021/08/18 06:55:13;;;;;;;4.78;1.55;;;21.40;71.60;;;;;;4912570;29;20059;-70
2021/08/18 06:57:40;;;;;;;8.43;1.70;;;22.20;68.50;;;;;;4912794;29;20091;-71
2021/08/18 07:00:06;;;;;;;6.88;1.77;;;23.10;66.20;;;;;;4912450;29;20032;-70
2021/08/18 07:02:32;;;;;;;4.60;1.20;;;24.00;63.00;;;;;;4912920;29;20035;-70
2021/08/18 07:05:04;;;;;;;2.47;1.10;;;24.70;59.20;;;;;;4912504;29;20044;-70
2021/08/18 07:07:29;;;;;;;6.10;1.30;;;25.60;55.40;;;;;;4912343;29;20198;-71
2021/08/18 07:09:55;;;;;;;3.90;1.40;;;26.40;53.50;;;;;;4895474;29;20139;-71
2021/08/18 07:12:20;;;;;;;4.90;2.40;;;27.10;50.10;;;;;;4913277;29;20399;-71
2021/08/18 07:14:46;;;;;;;2.55;1.60;;;28.00;47.80;;;;;;4898917;29;20092;-70
2021/08/18 07:17:12;;;;;;;3.53;1.33;;;28.10;46.40;;;;;;4915847;29;20040;-71
2021/08/18 07:19:37;;;;;;;4.32;1.40;;;28.10;44.20;;;;;;4916301;29;20139;-71
2021/08/18 07:22:03;;;;;;;4.22;1.17;;;27.90;42.70;;;;;;4915821;29;20405;-71
2021/08/18 07:24:29;;;;;;;3.17;1.42;;;27.50;43.70;;;;;;4915839;29;20044;-70
2021/08/18 07:26:55;;;;;;;4.72;1.40;;;27.40;44.70;;;;;;4898671;29;20032;-71
2021/08/18 07:29:20;;;;;;;3.38;1.27;;;27.30;42.40;;;;;;4920677;29;20045;-71
2021/08/18 07:31:46;;;;;;;2.13;1.20;;;26.90;42.30;;;;;;4932837;29;20601;-71
2021/08/18 07:34:12;;;;;;;3.22;1.40;;;26.80;40.70;;;;;;4931181;28;20028;-70
2021/08/18 07:36:37;;;;;;;3.80;1.38;;;26.80;40.30;;;;;;4932282;29;20932;-70
2021/08/18 07:39:03;;;;;;;2.33;1.30;;;26.90;40.90;;;;;;4932156;29;20487;-71
2021/08/18 07:41:28;;;;;;;5.25;1.75;;;27.40;39.70;;;;;;4932544;29;20035;-71
2021/08/18 07:43:54;;;;;;;3.33;2.00;;;27.70;39.40;;;;;;4931793;29;20032;-71
2021/08/18 07:46:20;;;;;;;2.80;1.75;;;28.40;38.60;;;;;;4932249;29;20111;-71
2021/08/18 07:48:45;;;;;;;3.50;1.80;;;29.00;36.80;;;;;;4931771;29;20024;-71
2021/08/18 07:51:11;;;;;;;3.47;1.85;;;29.30;35.60;;;;;;4932499;29;20093;-70
2021/08/18 07:53:41;;;;;;;5.43;1.63;;;29.30;35.30;;;;;;4934026;29;20020;-71
2021/08/18 07:56:06;;;;;;;3.88;1.80;;;29.60;34.60;;;;;;4931758;29;20082;-71
2021/08/18 07:58:32;;;;;;;3.53;1.65;;;29.50;34.70;;;;;;4933715;29;20570;-71
2021/08/18 08:00:58;;;;;;;4.38;1.80;;;30.00;35.10;;;;;;4935796;29;20032;-71
2021/08/18 08:03:23;;;;;;;2.80;1.35;;;30.30;33.10;;;;;;4942459;29;20059;-71
2021/08/18 08:05:50;;;;;;;3.53;1.50;;;30.50;32.50;;;;;;4930950;29;20569;-71
2021/08/18 08:08:15;;;;;;;3.60;1.70;;;30.60;33.10;;;;;;4931368;29;20036;-71
2021/08/18 08:10:41;;;;;;;4.65;2.08;;;30.60;32.00;;;;;;4930878;29;20488;-69
2021/08/18 08:13:09;;;;;;;3.88;2.05;;;30.50;32.40;;;;;;4931222;29;20404;-70
2021/08/18 08:15:35;;;;;;;3.35;1.92;;;30.60;32.30;;;;;;4931202;29;20032;-69
2021/08/18 08:18:00;;;;;;;9.68;1.90;;;30.80;32.30;;;;;;4930985;29;20432;-71
2021/08/18 08:20:27;;;;;;;3.15;1.48;;;31.30;31.90;;;;;;4930843;29;20056;-71
2021/08/18 08:22:56;;;;;;;3.78;2.40;;;31.40;32.00;;;;;;4930850;29;20032;-70
2021/08/18 08:25:22;;;;;;;5.63;2.20;;;30.90;30.60;;;;;;4930142;29;20104;-71
2021/08/18 08:27:48;;;;;;;6.00;1.70;;;31.20;30.90;;;;;;4930876;29;20031;-70
2021/08/18 08:30:13;;;;;;;4.40;2.10;;;31.00;31.20;;;;;;4930794;29;20046;-69
2021/08/18 08:32:39;;;;;;;4.82;2.22;;;31.20;30.80;;;;;;4930209;29;20028;-70
2021/08/18 08:35:10;;;;;;;4.55;2.47;;;31.40;30.70;;;;;;4930729;29;20059;-69
2021/08/18 08:37:36;;;;;;;5.68;2.22;;;31.30;31.40;;;;;;4930697;29;20031;-69
2021/08/18 08:40:02;;;;;;;4.55;3.17;;;31.50;31.70;;;;;;4929076;29;20500;-69
2021/08/18 08:42:28;;;;;;;5.07;2.75;;;31.30;30.80;;;;;;4930584;29;20023;-70
2021/08/18 08:44:59;;;;;;;9.45;2.78;;;31.10;31.20;;;;;;4930605;29;20076;-69
2021/08/18 08:47:24;;;;;;;4.78;2.20;;;31.20;32.20;;;;;;4930599;29;20027;-70
2021/08/18 08:49:51;;;;;;;6.28;2.65;;;31.30;31.70;;;;;;4930670;29;20528;-70
2021/08/18 08:52:16;;;;;;;8.65;2.10;;;31.40;30.80;;;;;;4929392;29;20676;-70
2021/08/18 08:54:45;;;;;;;4.32;2.40;;;31.10;31.20;;;;;;4929915;29;20035;-70
2021/08/18 08:57:11;;;;;;;4.43;2.67;;;30.90;32.40;;;;;;4930693;29;20043;-70
2021/08/18 08:59:37;;;;;;;3.72;1.92;;;30.70;32.70;;;;;;4930310;29;20031;-70
2021/08/18 09:02:08;;;;;;;9.30;2.45;;;30.80;33.50;;;;;;4930679;29;20027;-70
2021/08/18 09:04:38;;;;;;;8.15;2.63;;;30.70;32.90;;;;;;4930556;29;20036;-69
2021/08/18 09:07:23;;;;;;;5.68;2.03;;;30.40;32.10;;;;;;4929766;29;20118;-69
2021/08/18 09:09:57;;;;;;;4.95;2.45;;;30.20;34.10;;;;;;4930367;29;20039;-70
2021/08/18 09:12:36;;;;;;;3.70;2.78;;;30.60;33.30;;;;;;4930842;29;20042;-70
2021/08/18 09:15:16;;;;;;;4.00;2.03;;;30.70;33.80;;;;;;4930564;29;20032;-70
2021/08/18 09:17:43;;;;;;;4.68;2.60;;;30.30;33.80;;;;;;4930638;29;20563;-70
2021/08/18 09:20:12;;;;;;;3.80;2.22;;;30.50;33.50;;;;;;4913425;29;20027;-70
2021/08/18 09:22:44;;;;;;;3.38;2.05;;;30.30;33.50;;;;;;4929096;29;20028;-71
2021/08/18 09:25:15;;;;;;;4.25;2.22;;;30.50;33.80;;;;;;4924302;29;20054;-70
2021/08/18 09:27:43;;;;;;;4.47;2.50;;;30.40;33.30;;;;;;4949173;29;20464;-70
2021/08/18 09:30:18;;;;;;;4.07;2.30;;;30.60;33.30;;;;;;4949416;29;20031;-70
2021/08/18 09:32:44;;;;;;;;;;;30.90;33.50;;;;;;4949523;28;20031;-70
2021/08/18 09:35:10;;;;;;;;;;;30.70;32.70;;;;;;4949463;28;19929;-71
2021/08/18 09:37:38;;;;;;;8.02;2.40;;;30.80;33.30;;;;;;4941999;29;19911;-70
2021/08/18 09:40:20;;;;;;;5.18;2.63;;;30.70;32.40;;;;;;4923026;29;20023;-70
2021/08/18 09:42:46;;;;;;;5.85;2.58;;;31.00;31.70;;;;;;4932247;29;20337;-70
2021/08/18 09:45:23;;;;;;;4.50;2.20;;;30.70;32.50;;;;;;4915081;29;20045;-68
2021/08/18 09:47:58;;;;;;;4.72;2.72;;;30.60;32.30;;;;;;4932607;29;20103;-69
2021/08/18 09:50:26;;;;;;;6.40;2.97;;;30.80;31.70;;;;;;4932483;29;20039;-69
2021/08/18 09:52:53;;;;;;;4.32;2.45;;;30.90;33.00;;;;;;4932091;29;20622;-70
2021/08/18 09:55:23;;;;;;;4.13;2.50;;;31.10;34.00;;;;;;4932279;29;20505;-70
2021/08/18 09:57:50;;;;;;;4.57;3.00;;;31.20;33.40;;;;;;4932137;29;20038;-70
2021/08/18 10:00:17;;;;;;;4.72;2.40;;;31.30;32.00;;;;;;4930328;29;20441;-69
2021/08/18 10:02:43;;;;;;;3.42;2.05;;;31.60;32.00;;;;;;4913116;29;20046;-69
2021/08/18 10:05:10;;;;;;;9.35;2.83;;;31.40;31.10;;;;;;4927160;29;20057;-70
2021/08/18 10:07:36;;;;;;;7.18;3.10;;;31.40;32.80;;;;;;4931383;29;20031;-69
2021/08/18 10:10:03;;;;;;;5.22;2.35;;;31.50;32.20;;;;;;4931342;28;20044;-69
2021/08/18 10:12:32;;;;;;;4.03;2.78;;;31.40;32.70;;;;;;4927931;29;20118;-69
2021/08/18 10:15:05;;;;;;;3.95;2.70;;;31.50;33.00;;;;;;4913937;29;20040;-70
2021/08/18 10:17:38;;;;;;;4.22;2.90;;;31.10;32.30;;;;;;4930721;29;20036;-69
2021/08/18 10:20:05;;;;;;;4.38;2.70;;;30.60;32.90;;;;;;4931199;29;20032;-71
2021/08/18 10:22:31;;;;;;;5.25;2.80;;;29.90;33.00;;;;;;4930425;29;20043;-71
2021/08/18 10:25:16;;;;;;;6.68;2.80;;;29.30;35.20;;;;;;4931002;29;20044;-70
2021/08/18 10:27:47;;;;;;;5.05;2.63;;;28.60;34.90;;;;;;4930664;29;20398;-68
2021/08/18 10:30:21;;;;;;;4.88;2.63;;;28.00;37.00;;;;;;4929321;29;20048;-69
2021/08/18 10:32:47;;;;;;;5.10;2.97;;;27.60;36.70;;;;;;4928964;29;20070;-68
2021/08/18 10:35:34;;;;;;;6.47;2.95;;;27.30;36.50;;;;;;4927325;29;20087;-68
2021/08/18 10:38:26;;;;;;;4.80;2.72;;;26.90;36.10;;;;;;4929934;29;20047;-68
2021/08/18 10:40:53;;;;;;;9.85;3.50;;;26.70;36.00;;;;;;4931341;29;20531;-69
2021/08/18 10:43:58;;;;;;;5.97;3.30;;;26.40;37.60;;;;;;4931473;29;20032;-69
2021/08/18 10:46:24;;;;;;;5.55;3.45;;;26.30;36.20;;;;;;4931062;29;20046;-70
2021/08/18 10:48:56;;;;;;;5.13;3.30;;;26.20;36.00;;;;;;4931003;29;20055;-69
2021/08/18 10:51:40;;;;;;;5.78;3.05;;;26.20;37.10;;;;;;4931452;29;20048;-70
2021/08/18 10:54:39;;;;;;;6.43;3.38;;;26.10;37.30;;;;;;4931370;29;20035;-70
2021/08/18 10:57:24;;;;;;;5.80;3.13;;;26.00;39.00;;;;;;4879980;29;20075;-70
2021/08/18 10:59:51;;;;;;;6.50;3.70;;;25.80;39.60;;;;;;4931383;29;20444;-69
2021/08/18 11:02:48;;;;;;;7.35;2.92;;;25.50;40.20;;;;;;4931549;29;20399;-70
2021/08/18 11:05:15;;;;;;;6.10;3.60;;;25.30;40.60;;;;;;4931095;29;20039;-69
2021/08/18 11:08:05;;;;;;;6.30;3.42;;;25.20;41.40;;;;;;4931373;29;20036;-69
2021/08/18 11:10:34;;;;;;;8.23;3.45;;;25.10;40.50;;;;;;4914080;29;20023;-70
2021/08/18 11:13:01;;;;;;;4.85;3.15;;;25.20;41.60;;;;;;4931056;29;20485;-70
2021/08/18 11:15:27;;;;;;;10.52;2.50;;;25.50;42.40;;;;;;4914211;29;20051;-70
2021/08/18 11:17:56;;;;;;;3.33;2.53;;;25.80;42.20;;;;;;4931196;29;20040;-69
2021/08/18 11:20:22;;;;;;;5.22;3.10;;;26.00;40.10;;;;;;4914127;29;20107;-70
2021/08/18 11:22:55;;;;;;;5.13;2.55;;;26.00;40.50;;;;;;4931016;29;20036;-70
2021/08/18 11:25:21;;;;;;;4.35;2.65;;;26.00;41.10;;;;;;4913916;29;20123;-69
2021/08/18 11:27:48;;;;;;;4.53;2.38;;;25.80;39.80;;;;;;4930955;29;20039;-69
2021/08/18 11:30:14;;;;;;;4.45;2.90;;;25.70;40.30;;;;;;4931157;29;20042;-69
2021/08/18 11:32:40;;;;;;;5.95;3.25;;;25.90;40.30;;;;;;4930657;29;20035;-70
2021/08/18 11:35:06;;;;;;;5.40;2.47;;;25.90;40.80;;;;;;4930950;29;20043;-70
2021/08/18 11:37:32;;;;;;;7.07;3.47;;;26.10;40.50;;;;;;4931070;29;20036;-69
2021/08/18 11:39:59;;;;;;;5.80;2.70;;;26.30;40.80;;;;;;4930868;29;20027;-70
2021/08/18 11:42:25;;;;;;;4.15;2.58;;;26.40;40.50;;;;;;4931072;29;20028;-70
2021/08/18 11:45:07;;;;;;;8.23;3.22;;;26.40;39.00;;;;;;4930761;29;20043;-70
2021/08/18 11:47:34;;;;;;;4.60;2.45;;;26.30;39.20;;;;;;4930931;29;20024;-68
2021/08/18 11:50:02;;;;;;;5.28;2.95;;;26.20;40.30;;;;;;4913680;29;20456;-69
2021/08/18 11:52:28;;;;;;;5.80;2.97;;;26.20;39.90;;;;;;4930714;29;20020;-70
2021/08/18 11:55:04;;;;;;;4.90;3.20;;;26.20;40.20;;;;;;4930637;29;20042;-70
2021/08/18 11:57:31;;;;;;;4.63;2.63;;;26.30;40.60;;;;;;4930839;29;20042;-70
2021/08/18 11:59:58;;;;;;;3.90;2.65;;;26.10;40.40;;;;;;4917074;29;20376;-69
2021/08/18 12:02:29;;;;;;;4.25;2.50;;;25.90;40.60;;;;;;4934340;29;20035;-69
2021/08/18 12:04:56;;;;;;;3.53;2.85;;;25.80;40.40;;;;;;4934007;29;20051;-69
2021/08/18 12:07:21;;;;;;;4.85;3.17;;;25.80;41.10;;;;;;4934276;29;20024;-69
2021/08/18 12:10:06;;;;;;;6.75;3.47;;;25.50;41.80;;;;;;4934277;29;20036;-69
2021/08/18 12:12:32;;;;;;;5.00;3.03;;;25.50;42.60;;;;;;4933942;29;20497;-70
2021/08/18 12:15:09;;;;;;;5.85;2.85;;;25.40;42.10;;;;;;4916778;29;20059;-69
2021/08/18 12:17:43;;;;;;;3.88;2.80;;;25.30;41.90;;;;;;4934102;29;20063;-69
2021/08/18 12:20:30;;;;;;;4.05;2.75;;;25.10;43.40;;;;;;4916886;29;20032;-71
2021/08/18 12:23:05;;;;;;;5.00;2.83;;;24.90;43.90;;;;;;4933808;29;20038;-69
2021/08/18 12:25:33;;;;;;;8.20;2.80;;;24.70;43.00;;;;;;4917018;29;20374;-69
2021/08/18 12:28:19;;;;;;;8.15;3.05;;;24.60;43.90;;;;;;4934411;29;20034;-69
2021/08/18 12:31:02;;;;;;;6.18;3.30;;;24.50;45.90;;;;;;4933749;29;20066;-69
2021/08/18 12:33:29;;;;;;;6.07;2.63;;;24.50;44.20;;;;;;4933711;29;20016;-69
2021/08/18 12:36:08;;;;;;;10.60;3.00;;;24.60;43.80;;;;;;4933475;29;20690;-69
2021/08/18 12:38:33;;;;;;;11.30;3.17;;;25.00;44.60;;;;;;4916626;29;20035;-69
2021/08/18 12:41:07;;;;;;;4.43;2.75;;;25.30;42.90;;;;;;4933808;29;20197;-70
2021/08/18 12:43:34;;;;;;;5.35;2.70;;;25.30;42.20;;;;;;4933653;29;20023;-70
2021/08/18 12:45:59;;;;;;;6.93;2.53;;;25.10;42.00;;;;;;4933489;29;20071;-70
2021/08/18 12:48:25;;;;;;;5.40;3.08;;;25.10;42.20;;;;;;4934108;29;20063;-69
2021/08/18 12:50:51;;;;;;;4.60;2.72;;;25.10;43.30;;;;;;4933466;29;20027;-69
2021/08/18 12:53:17;;;;;;;6.47;3.05;;;25.10;43.50;;;;;;4933386;29;20024;-69
2021/08/18 12:55:45;;;;;;;6.10;2.88;;;25.20;44.60;;;;;;4933448;29;20079;-69
2021/08/18 12:58:19;;;;;;;11.35;3.60;;;25.30;44.80;;;;;;4916248;29;20091;-68
2021/08/18 13:00:45;;;;;;;4.28;2.88;;;25.30;44.30;;;;;;4933216;29;20020;-69
2021/08/18 13:03:10;;;;;;;4.57;2.85;;;25.40;43.10;;;;;;4933272;29;20048;-69